Terminal Aerodrome Forecast
Issued by NWS Des Moines, IA

Home | Current Version | Previous Version | Text Only | Print | Product List | Glossary On
Versions: 1 2 3 4 5 6 7 8 9 10 11 12 13 14 15 16 17 18 19 20 21 22 23
000
FTUS43 KDMX 111727
TAFDSM
TAF
KDSM 111727Z 1118/1218 15011G18KT P6SM SCT120 OVC250
     FM120000 13009KT P6SM SCT035 BKN050
     FM121200 28006KT P6SM VCTS SCT035CB BKN100=

USA.gov is the U.S. government's official web portal to all federal, state and local government web resources and services.